Time;durP1;ratioP1;P1;durP2;ratioP2;P2;SDS_P1;SDS_P2;PMS_P1;PMS_P2;Temp;Humidity;BMP_temperature;BMP_pressure;BME280_temperature;BME280_humidity;BME280_pressure;Samples;Min_cycle;Max_cycle;Signal;HPM_P1;HPM_P2
2023/05/29 00:02:19;;;;;;;14.30;7.00;;;;;;;-128.00;-1.00;-1.00;105349;1253;1003874;-77
2023/05/29 00:04:45;;;;;;;13.30;7.70;;;;;;;-128.00;-1.00;-1.00;105329;1254;1003945;-77
2023/05/29 00:07:11;;;;;;;15.40;6.60;;;;;;;-128.00;-1.00;-1.00;105378;1253;1004970;-78
2023/05/29 00:09:38;;;;;;;11.90;5.70;;;;;;;-128.00;-1.00;-1.00;105270;1254;1004754;-77
2023/05/29 00:12:05;;;;;;;13.70;6.10;;;;;;;-128.00;-1.00;-1.00;105468;1253;1004128;-77
2023/05/29 00:14:31;;;;;;;14.10;7.30;;;;;;;-128.00;-1.00;-1.00;105462;1253;1004136;-77
2023/05/29 00:16:58;;;;;;;12.30;6.50;;;;;;;-128.00;-1.00;-1.00;105425;1253;1004167;-78
2023/05/29 00:19:25;;;;;;;10.60;5.90;;;;;;;-128.00;-1.00;-1.00;105353;1253;1003962;-77
2023/05/29 00:21:51;;;;;;;11.10;6.90;;;;;;;-128.00;-1.00;-1.00;105461;1253;1005142;-79
2023/05/29 00:24:18;;;;;;;11.10;6.00;;;;;;;-128.00;-1.00;-1.00;105436;1253;1004727;-76
2023/05/29 00:26:44;;;;;;;14.30;6.90;;;;;;;-128.00;-1.00;-1.00;105470;1253;1004424;-78
2023/05/29 00:29:11;;;;;;;9.60;6.10;;;;;;;-128.00;-1.00;-1.00;105450;1253;1006655;-77
2023/05/29 00:31:37;;;;;;;13.60;6.20;;;;;;;-128.00;-1.00;-1.00;105483;1253;1003530;-77
2023/05/29 00:34:04;;;;;;;11.30;5.90;;;;;;;-128.00;-1.00;-1.00;105538;1252;1004875;-78
2023/05/29 00:36:31;;;;;;;8.20;5.20;;;;;;;-128.00;-1.00;-1.00;105526;1251;1004413;-78
2023/05/29 00:38:57;;;;;;;11.40;6.20;;;;;;;-128.00;-1.00;-1.00;105511;1254;1005099;-76
2023/05/29 00:41:24;;;;;;;9.80;5.40;;;;;;;-128.00;-1.00;-1.00;105526;1252;1004183;-76
2023/05/29 00:43:51;;;;;;;13.00;6.20;;;;;;;-128.00;-1.00;-1.00;105532;1252;1004641;-77
2023/05/29 00:46:17;;;;;;;12.90;5.50;;;;;;;-128.00;-1.00;-1.00;105529;1254;1005065;-77
2023/05/29 00:48:43;;;;;;;11.50;6.00;;;;;;;-128.00;-1.00;-1.00;105361;1253;1004962;-78
2023/05/29 00:51:11;;;;;;;11.40;5.80;;;;;;;-128.00;-1.00;-1.00;105507;1253;1005672;-78
2023/05/29 00:53:38;;;;;;;9.20;5.70;;;;;;;-128.00;-1.00;-1.00;105311;1252;1004823;-77
2023/05/29 00:56:04;;;;;;;11.40;6.80;;;;;;;-128.00;-1.00;-1.00;105351;1253;1004371;-77
2023/05/29 00:58:31;;;;;;;8.40;5.10;;;;;;;-128.00;-1.00;-1.00;105333;1253;1005541;-77
2023/05/29 01:00:57;;;;;;;9.90;5.70;;;;;;;-128.00;-1.00;-1.00;105366;1254;1004483;-78
2023/05/29 01:03:24;;;;;;;7.90;5.10;;;;;;;-128.00;-1.00;-1.00;105439;1252;1003758;-77
2023/05/29 01:05:51;;;;;;;10.30;5.60;;;;;;;-128.00;-1.00;-1.00;105428;1253;1004641;-78
2023/05/29 01:08:18;;;;;;;11.00;5.20;;;;;;;-128.00;-1.00;-1.00;105461;1253;1004822;-78
2023/05/29 01:10:45;;;;;;;13.40;6.10;;;;;;;-128.00;-1.00;-1.00;105346;1253;1004174;-78
2023/05/29 01:13:17;;;;;;;14.20;6.20;;;;;;;-128.00;-1.00;-1.00;105474;1253;1004639;-76
2023/05/29 01:16:05;;;;;;;9.90;6.10;;;;;;;-128.00;-1.00;-1.00;105637;1253;1060131;-77
2023/05/29 01:18:41;;;;;;;9.40;5.80;;;;;;;-128.00;-1.00;-1.00;105674;1253;1046457;-78
2023/05/29 01:21:14;;;;;;;8.10;4.90;;;;;;;-128.00;-1.00;-1.00;105475;1253;1046892;-76
2023/05/29 01:23:47;;;;;;;8.00;5.70;;;;;;;-128.00;-1.00;-1.00;105656;1253;1061829;-78
2023/05/29 01:26:41;;;;;;;9.90;5.20;;;;;;;-128.00;-1.00;-1.00;105587;1253;1057795;-78
2023/05/29 01:29:08;;;;;;;10.50;6.20;;;;;;;-128.00;-1.00;-1.00;105345;1253;1059641;-77
2023/05/29 01:31:35;;;;;;;14.60;6.00;;;;;;;-128.00;-1.00;-1.00;105249;1253;1004297;-78
2023/05/29 01:34:02;;;;;;;10.60;5.40;;;;;;;-128.00;-1.00;-1.00;105592;1253;1005901;-78
2023/05/29 01:36:28;;;;;;;9.00;5.60;;;;;;;-128.00;-1.00;-1.00;105615;1254;1003523;-78
2023/05/29 01:38:56;;;;;;;10.90;5.50;;;;;;;-128.00;-1.00;-1.00;105737;1252;1004944;-78
2023/05/29 01:41:23;;;;;;;13.80;6.40;;;;;;;-128.00;-1.00;-1.00;105569;1253;1004449;-76
2023/05/29 01:43:50;;;;;;;10.00;6.50;;;;;;;-128.00;-1.00;-1.00;105376;1253;1004118;-78
2023/05/29 01:46:16;;;;;;;17.10;10.60;;;;;;;-128.00;-1.00;-1.00;105511;1253;1003479;-78
2023/05/29 01:48:43;;;;;;;9.10;5.40;;;;;;;-128.00;-1.00;-1.00;105500;1253;1004124;-78
2023/05/29 01:51:13;;;;;;;14.40;5.50;;;;;;;-128.00;-1.00;-1.00;105220;1253;1005175;-78
2023/05/29 01:53:40;;;;;;;11.50;5.70;;;;;;;-128.00;-1.00;-1.00;105379;1254;1060311;-76
2023/05/29 01:56:06;;;;;;;8.50;5.50;;;;;;;-128.00;-1.00;-1.00;105313;1253;1004814;-77
2023/05/29 01:58:34;;;;;;;8.20;5.10;;;;;;;-128.00;-1.00;-1.00;105477;1253;1003952;-77
2023/05/29 02:01:01;;;;;;;8.80;4.90;;;;;;;-128.00;-1.00;-1.00;105678;1253;1003951;-77
2023/05/29 02:03:28;;;;;;;22.50;6.70;;;;;;;-128.00;-1.00;-1.00;105699;1253;1004640;-77
2023/05/29 02:05:57;;;;;;;11.40;6.00;;;;;;;-128.00;-1.00;-1.00;105657;1252;1003319;-77
2023/05/29 02:08:26;;;;;;;11.00;5.70;;;;;;;-128.00;-1.00;-1.00;105690;1253;1046422;-78
2023/05/29 02:10:52;;;;;;;19.40;6.70;;;;;;;-128.00;-1.00;-1.00;105693;1253;1004343;-78
2023/05/29 02:13:19;;;;;;;11.00;7.30;;;;;;;-128.00;-1.00;-1.00;105540;1254;1003514;-77
2023/05/29 02:15:45;;;;;;;9.20;5.60;;;;;;;-128.00;-1.00;-1.00;105457;1254;1004939;-77
2023/05/29 02:18:13;;;;;;;12.00;5.70;;;;;;;-128.00;-1.00;-1.00;105451;1253;1004770;-78
2023/05/29 02:20:40;;;;;;;10.40;5.50;;;;;;;-128.00;-1.00;-1.00;105446;1253;1003584;-77
2023/05/29 02:23:10;;;;;;;12.00;5.30;;;;;;;-128.00;-1.00;-1.00;105218;1253;1006322;-77
2023/05/29 02:25:36;;;;;;;9.00;5.00;;;;;;;-128.00;-1.00;-1.00;105483;1254;1060227;-78
2023/05/29 02:28:03;;;;;;;10.40;6.20;;;;;;;-128.00;-1.00;-1.00;105481;1253;1004347;-78
2023/05/29 02:30:30;;;;;;;7.50;4.80;;;;;;;-128.00;-1.00;-1.00;105553;1254;1003476;-78
2023/05/29 02:32:56;;;;;;;9.80;5.10;;;;;;;-128.00;-1.00;-1.00;105720;1254;1004658;-77
2023/05/29 02:35:23;;;;;;;11.30;4.70;;;;;;;-128.00;-1.00;-1.00;105743;1253;1003776;-78
2023/05/29 02:37:49;;;;;;;12.20;5.20;;;;;;;-128.00;-1.00;-1.00;105711;1254;1003683;-77
2023/05/29 02:40:16;;;;;;;8.20;5.00;;;;;;;-128.00;-1.00;-1.00;105729;1253;1003411;-78
2023/05/29 02:42:43;;;;;;;10.80;5.00;;;;;;;-128.00;-1.00;-1.00;105710;1253;1004487;-77
2023/05/29 02:45:11;;;;;;;11.40;5.10;;;;;;;-128.00;-1.00;-1.00;105496;1252;1003451;-77
2023/05/29 02:47:37;;;;;;;8.20;4.40;;;;;;;-128.00;-1.00;-1.00;105754;1253;1003980;-78
2023/05/29 02:50:04;;;;;;;13.60;5.40;;;;;;;-128.00;-1.00;-1.00;105675;1253;1004142;-78
2023/05/29 02:52:31;;;;;;;8.50;5.40;;;;;;;-128.00;-1.00;-1.00;105669;1253;1003853;-78
2023/05/29 02:54:58;;;;;;;11.20;5.70;;;;;;;-128.00;-1.00;-1.00;105651;1253;1004345;-78
2023/05/29 02:57:25;;;;;;;7.80;4.70;;;;;;;-128.00;-1.00;-1.00;105662;1253;1004033;-77
2023/05/29 02:59:51;;;;;;;8.20;4.90;;;;;;;-128.00;-1.00;-1.00;105679;1253;1004399;-78
2023/05/29 03:02:18;;;;;;;9.10;5.20;;;;;;;-128.00;-1.00;-1.00;105433;1253;1004364;-76
2023/05/29 03:04:44;;;;;;;12.00;5.30;;;;;;;-128.00;-1.00;-1.00;105445;1253;1004141;-78
2023/05/29 03:07:12;;;;;;;8.20;4.80;;;;;;;-128.00;-1.00;-1.00;105472;1252;1003574;-76
2023/05/29 03:09:38;;;;;;;9.40;5.20;;;;;;;-128.00;-1.00;-1.00;105339;1256;1004076;-77
2023/05/29 03:12:05;;;;;;;9.70;4.60;;;;;;;-128.00;-1.00;-1.00;105488;1253;1006041;-77
2023/05/29 03:14:35;;;;;;;8.80;5.60;;;;;;;-128.00;-1.00;-1.00;105541;1253;1003454;-78
2023/05/29 03:17:05;;;;;;;10.60;5.50;;;;;;;-128.00;-1.00;-1.00;105530;1253;1058019;-76
2023/05/29 03:19:32;;;;;;;11.50;5.30;;;;;;;-128.00;-1.00;-1.00;105486;1253;1058564;-76
2023/05/29 03:21:58;;;;;;;11.20;5.80;;;;;;;-128.00;-1.00;-1.00;105415;1253;1004176;-77
2023/05/29 03:24:24;;;;;;;8.30;4.80;;;;;;;-128.00;-1.00;-1.00;105578;1253;1004383;-78
2023/05/29 03:26:51;;;;;;;7.60;4.50;;;;;;;-128.00;-1.00;-1.00;105494;1253;1004182;-78
2023/05/29 03:29:17;;;;;;;13.30;6.10;;;;;;;-128.00;-1.00;-1.00;105501;1253;1004434;-77
2023/05/29 03:31:44;;;;;;;12.00;5.70;;;;;;;-128.00;-1.00;-1.00;105486;1253;1003982;-77
2023/05/29 03:34:10;;;;;;;9.50;5.80;;;;;;;-128.00;-1.00;-1.00;105494;1253;1003347;-76
2023/05/29 03:36:37;;;;;;;9.90;5.90;;;;;;;-128.00;-1.00;-1.00;105551;1254;1004467;-78
2023/05/29 03:39:04;;;;;;;12.20;6.70;;;;;;;-128.00;-1.00;-1.00;105503;1252;1004121;-78
2023/05/29 03:41:30;;;;;;;16.30;8.40;;;;;;;-128.00;-1.00;-1.00;105523;1253;1004328;-76
2023/05/29 03:43:56;;;;;;;14.20;7.30;;;;;;;-128.00;-1.00;-1.00;105509;1253;1004220;-78
2023/05/29 03:46:23;;;;;;;12.40;6.10;;;;;;;-128.00;-1.00;-1.00;105526;1254;1005155;-76
2023/05/29 03:48:49;;;;;;;12.10;6.50;;;;;;;-128.00;-1.00;-1.00;105520;1254;1003461;-77
2023/05/29 03:51:16;;;;;;;13.10;5.70;;;;;;;-128.00;-1.00;-1.00;105415;1254;1003487;-76
2023/05/29 03:53:42;;;;;;;8.70;5.00;;;;;;;-128.00;-1.00;-1.00;105323;1253;1004845;-78
2023/05/29 03:56:08;;;;;;;8.10;5.60;;;;;;;-128.00;-1.00;-1.00;105457;1253;1004754;-76
2023/05/29 03:58:36;;;;;;;14.60;6.40;;;;;;;-128.00;-1.00;-1.00;105448;1253;1004515;-76
2023/05/29 04:01:02;;;;;;;11.10;7.30;;;;;;;-128.00;-1.00;-1.00;105458;1254;1005389;-78
2023/05/29 04:03:29;;;;;;;9.70;5.60;;;;;;;-128.00;-1.00;-1.00;105468;1253;1004130;-76
2023/05/29 04:05:56;;;;;;;12.10;6.70;;;;;;;-128.00;-1.00;-1.00;105459;1253;1003790;-77
2023/05/29 04:08:22;;;;;;;22.60;8.60;;;;;;;-128.00;-1.00;-1.00;105458;1253;1004464;-77
2023/05/29 04:10:53;;;;;;;15.90;7.00;;;;;;;-128.00;-1.00;-1.00;105445;1253;1005554;-79
2023/05/29 04:13:20;;;;;;;14.40;6.60;;;;;;;-128.00;-1.00;-1.00;105420;1253;1046345;-77
2023/05/29 04:15:47;;;;;;;11.90;8.30;;;;;;;-128.00;-1.00;-1.00;105480;1253;1003824;-77
2023/05/29 04:18:13;;;;;;;17.10;8.70;;;;;;;-128.00;-1.00;-1.00;105471;1254;1004016;-78
2023/05/29 04:20:40;;;;;;;16.00;7.50;;;;;;;-128.00;-1.00;-1.00;105449;1253;1004373;-77
2023/05/29 04:23:06;;;;;;;13.80;7.10;;;;;;;-128.00;-1.00;-1.00;105328;1253;1004025;-77
2023/05/29 04:25:34;;;;;;;17.40;7.90;;;;;;;-128.00;-1.00;-1.00;105412;1252;1004285;-77
2023/05/29 04:28:02;;;;;;;19.10;9.70;;;;;;;-128.00;-1.00;-1.00;105464;1254;1004339;-77
2023/05/29 04:30:28;;;;;;;13.70;9.30;;;;;;;-128.00;-1.00;-1.00;105428;1254;1005734;-78
2023/05/29 04:32:55;;;;;;;17.50;8.10;;;;;;;-128.00;-1.00;-1.00;105519;1253;1004341;-79
2023/05/29 04:35:21;;;;;;;21.40;9.00;;;;;;;-128.00;-1.00;-1.00;105501;1254;1003899;-77
2023/05/29 04:37:48;;;;;;;17.30;7.00;;;;;;;-128.00;-1.00;-1.00;105379;1254;1004263;-76
2023/05/29 04:40:17;;;;;;;13.90;7.50;;;;;;;-128.00;-1.00;-1.00;105539;1253;1004092;-77
2023/05/29 04:42:46;;;;;;;12.30;6.20;;;;;;;-128.00;-1.00;-1.00;105529;1254;1057267;-79
2023/05/29 04:45:12;;;;;;;;;;;;;;;-128.00;-1.00;-1.00;105493;1254;1061498;-79
2023/05/29 04:47:43;;;;;;;11.60;6.70;;;;;;;-128.00;-1.00;-1.00;105524;1252;1005319;-78
2023/05/29 04:50:12;;;;;;;10.20;5.80;;;;;;;-128.00;-1.00;-1.00;105350;1255;1046896;-77
2023/05/29 04:52:39;;;;;;;9.20;5.70;;;;;;;-128.00;-1.00;-1.00;105391;1254;1060784;-78
2023/05/29 04:55:05;;;;;;;11.40;6.90;;;;;;;-128.00;-1.00;-1.00;105379;1254;1004494;-78
2023/05/29 04:57:32;;;;;;;11.50;5.80;;;;;;;-128.00;-1.00;-1.00;105374;1253;1004399;-77
2023/05/29 04:59:59;;;;;;;14.30;6.30;;;;;;;-128.00;-1.00;-1.00;105174;1254;1003765;-78
2023/05/29 05:02:25;;;;;;;16.10;7.30;;;;;;;-128.00;-1.00;-1.00;105404;1254;1003246;-77
2023/05/29 05:04:52;;;;;;;11.90;8.30;;;;;;;-128.00;-1.00;-1.00;105482;1254;1004156;-78
2023/05/29 05:07:18;;;;;;;12.10;5.80;;;;;;;-128.00;-1.00;-1.00;105404;1256;1006030;-77
2023/05/29 05:09:45;;;;;;;12.70;7.50;;;;;;;-128.00;-1.00;-1.00;104993;1253;1003925;-77
2023/05/29 05:12:11;;;;;;;11.60;6.10;;;;;;;-128.00;-1.00;-1.00;105451;1254;1004477;-76
2023/05/29 05:14:38;;;;;;;11.90;7.50;;;;;;;-128.00;-1.00;-1.00;105439;1253;1006011;-77
2023/05/29 05:17:04;;;;;;;9.40;6.90;;;;;;;-128.00;-1.00;-1.00;105489;1253;1005831;-77
2023/05/29 05:19:31;;;;;;;15.20;7.30;;;;;;;-128.00;-1.00;-1.00;105496;1253;1003835;-77
2023/05/29 05:21:57;;;;;;;15.60;6.10;;;;;;;-128.00;-1.00;-1.00;105466;1253;1004871;-78
2023/05/29 05:24:24;;;;;;;11.80;6.80;;;;;;;-128.00;-1.00;-1.00;105474;1253;1004921;-77
2023/05/29 05:26:50;;;;;;;16.80;7.10;;;;;;;-128.00;-1.00;-1.00;105504;1253;1003828;-80
2023/05/29 05:29:17;;;;;;;11.30;6.40;;;;;;;-128.00;-1.00;-1.00;105415;1253;1004669;-79
2023/05/29 05:31:43;;;;;;;16.90;6.90;;;;;;;-128.00;-1.00;-1.00;105321;1253;1004235;-77
2023/05/29 05:34:09;;;;;;;13.10;7.80;;;;;;;-128.00;-1.00;-1.00;105305;1252;1004557;-78
2023/05/29 05:36:36;;;;;;;13.10;7.30;;;;;;;-128.00;-1.00;-1.00;105533;1253;1004386;-78
2023/05/29 05:39:03;;;;;;;17.40;6.70;;;;;;;-128.00;-1.00;-1.00;105478;1254;1004162;-77
2023/05/29 05:41:29;;;;;;;15.90;7.70;;;;;;;-128.00;-1.00;-1.00;105372;1253;1003557;-79
2023/05/29 05:43:56;;;;;;;15.60;7.20;;;;;;;-128.00;-1.00;-1.00;105332;1254;1003904;-77
2023/05/29 05:46:22;;;;;;;9.80;6.30;;;;;;;-128.00;-1.00;-1.00;105406;1252;1005114;-77
2023/05/29 05:48:49;;;;;;;10.50;6.00;;;;;;;-128.00;-1.00;-1.00;105303;1253;1004529;-77
2023/05/29 05:51:15;;;;;;;19.10;6.40;;;;;;;-128.00;-1.00;-1.00;105404;1254;1004940;-77
2023/05/29 05:53:41;;;;;;;11.40;5.80;;;;;;;-128.00;-1.00;-1.00;105404;1253;1004251;-79
2023/05/29 05:56:08;;;;;;;11.60;6.00;;;;;;;-128.00;-1.00;-1.00;105415;1252;1004229;-79
2023/05/29 05:58:34;;;;;;;11.30;6.20;;;;;;;-128.00;-1.00;-1.00;105421;1253;1003305;-77
2023/05/29 06:01:01;;;;;;;14.70;6.40;;;;;;;-128.00;-1.00;-1.00;105421;1253;1003935;-77
2023/05/29 06:03:27;;;;;;;8.60;5.60;;;;;;;-128.00;-1.00;-1.00;105278;1253;1004585;-79
2023/05/29 06:05:54;;;;;;;16.60;7.50;;;;;;;-128.00;-1.00;-1.00;105380;1254;1005102;-77
2023/05/29 06:08:20;;;;;;;12.80;6.30;;;;;;;-128.00;-1.00;-1.00;105432;1254;1004602;-80
2023/05/29 06:10:47;;;;;;;11.00;6.10;;;;;;;-128.00;-1.00;-1.00;105450;1254;1004426;-77
2023/05/29 06:13:13;;;;;;;8.40;5.20;;;;;;;-128.00;-1.00;-1.00;105507;1254;1003447;-77
2023/05/29 06:15:40;;;;;;;10.80;6.10;;;;;;;-128.00;-1.00;-1.00;105452;1254;1003528;-79
2023/05/29 06:18:07;;;;;;;13.40;6.00;;;;;;;-128.00;-1.00;-1.00;105412;1253;1004350;-77
2023/05/29 06:20:33;;;;;;;8.70;7.10;;;;;;;-128.00;-1.00;-1.00;105431;1253;1004266;-77
2023/05/29 06:22:59;;;;;;;9.40;5.70;;;;;;;-128.00;-1.00;-1.00;105409;1253;1004654;-78
2023/05/29 06:25:32;;;;;;;11.70;5.80;;;;;;;-128.00;-1.00;-1.00;105411;1253;1003451;-79
2023/05/29 06:28:00;;;;;;;9.00;5.60;;;;;;;-128.00;-1.00;-1.00;105372;1256;1047568;-77
2023/05/29 06:30:27;;;;;;;8.90;5.00;;;;;;;-128.00;-1.00;-1.00;105439;1253;1003868;-79
2023/05/29 06:32:53;;;;;;;13.00;6.20;;;;;;;-128.00;-1.00;-1.00;105184;1260;1004022;-79
2023/05/29 06:35:20;;;;;;;8.70;5.10;;;;;;;-128.00;-1.00;-1.00;105366;1254;1004432;-77
2023/05/29 06:37:46;;;;;;;9.30;5.40;;;;;;;-128.00;-1.00;-1.00;105268;1253;1004979;-77
2023/05/29 06:40:13;;;;;;;10.60;4.50;;;;;;;-128.00;-1.00;-1.00;105326;1253;1004133;-77
2023/05/29 06:42:39;;;;;;;7.40;4.80;;;;;;;-128.00;-1.00;-1.00;105362;1256;1006537;-79
2023/05/29 06:45:07;;;;;;;11.10;5.20;;;;;;;-128.00;-1.00;-1.00;105327;1254;1004030;-79
2023/05/29 06:47:33;;;;;;;9.50;5.20;;;;;;;-128.00;-1.00;-1.00;105370;1256;1004211;-77
2023/05/29 06:49:59;;;;;;;18.60;5.50;;;;;;;-128.00;-1.00;-1.00;105345;1254;1004891;-79
2023/05/29 06:52:26;;;;;;;9.20;5.00;;;;;;;-128.00;-1.00;-1.00;105353;1253;1004168;-79
2023/05/29 06:54:54;;;;;;;11.80;5.20;;;;;;;-128.00;-1.00;-1.00;105371;1254;1003807;-77
2023/05/29 06:57:20;;;;;;;13.20;5.30;;;;;;;-128.00;-1.00;-1.00;105343;1254;1004823;-79
2023/05/29 06:59:46;;;;;;;8.90;5.10;;;;;;;-128.00;-1.00;-1.00;105385;1254;1005354;-79
2023/05/29 07:02:13;;;;;;;7.60;5.00;;;;;;;-128.00;-1.00;-1.00;105385;1255;1005354;-79
2023/05/29 07:04:39;;;;;;;11.20;6.70;;;;;;;-128.00;-1.00;-1.00;105418;1254;1005690;-77
2023/05/29 07:07:06;;;;;;;10.70;4.90;;;;;;;-128.00;-1.00;-1.00;105389;1254;1003805;-78
2023/05/29 07:09:32;;;;;;;13.00;7.70;;;;;;;-128.00;-1.00;-1.00;105335;1254;1004735;-79
2023/05/29 07:11:59;;;;;;;10.50;5.60;;;;;;;-128.00;-1.00;-1.00;105325;1254;1004786;-77
2023/05/29 07:14:25;;;;;;;10.90;5.70;;;;;;;-128.00;-1.00;-1.00;105372;1253;1003876;-80
2023/05/29 07:16:51;;;;;;;10.70;7.00;;;;;;;-128.00;-1.00;-1.00;105324;1254;1005131;-77
2023/05/29 07:19:18;;;;;;;7.20;4.30;;;;;;;-128.00;-1.00;-1.00;105382;1254;1003750;-78
2023/05/29 07:21:44;;;;;;;8.30;4.00;;;;;;;-128.00;-1.00;-1.00;105341;1254;1058779;-79
2023/05/29 07:24:10;;;;;;;10.30;3.80;;;;;;;-128.00;-1.00;-1.00;105341;1253;1005375;-78
2023/05/29 07:26:37;;;;;;;8.20;4.20;;;;;;;-128.00;-1.00;-1.00;105418;1255;1003896;-79
2023/05/29 07:29:03;;;;;;;7.30;4.00;;;;;;;-128.00;-1.00;-1.00;105410;1253;1003735;-78
2023/05/29 07:31:30;;;;;;;6.10;4.00;;;;;;;-128.00;-1.00;-1.00;105392;1254;1004390;-77
2023/05/29 07:33:57;;;;;;;5.90;3.50;;;;;;;-128.00;-1.00;-1.00;105320;1254;1003970;-79
2023/05/29 07:36:28;;;;;;;8.30;3.90;;;;;;;-128.00;-1.00;-1.00;105423;1254;1004693;-79
2023/05/29 07:38:58;;;;;;;5.30;3.70;;;;;;;-128.00;-1.00;-1.00;105398;1254;1047085;-77
2023/05/29 07:41:26;;;;;;;9.40;3.90;;;;;;;-128.00;-1.00;-1.00;105435;1254;1062455;-80
2023/05/29 07:43:52;;;;;;;12.30;4.40;;;;;;;-128.00;-1.00;-1.00;105395;1254;1059197;-77
2023/05/29 07:46:19;;;;;;;9.50;5.10;;;;;;;-128.00;-1.00;-1.00;105389;1255;1006191;-80
2023/05/29 07:48:46;;;;;;;10.70;5.90;;;;;;;-128.00;-1.00;-1.00;105344;1253;1003630;-80
2023/05/29 07:51:13;;;;;;;8.00;5.30;;;;;;;-128.00;-1.00;-1.00;105455;1254;1004107;-79
2023/05/29 07:53:39;;;;;;;9.50;5.40;;;;;;;-128.00;-1.00;-1.00;105386;1254;1004246;-79
2023/05/29 07:56:06;;;;;;;9.90;5.40;;;;;;;-128.00;-1.00;-1.00;105384;1254;1005736;-79
2023/05/29 07:58:33;;;;;;;11.90;5.30;;;;;;;-128.00;-1.00;-1.00;105297;1253;1004400;-78
2023/05/29 08:00:59;;;;;;;8.80;6.20;;;;;;;-128.00;-1.00;-1.00;105335;1256;1003952;-80
2023/05/29 08:03:26;;;;;;;8.20;4.70;;;;;;;-128.00;-1.00;-1.00;105373;1254;1004049;-75
2023/05/29 08:05:53;;;;;;;6.50;4.80;;;;;;;-128.00;-1.00;-1.00;105326;1254;1004423;-76
2023/05/29 08:08:19;;;;;;;11.50;5.90;;;;;;;-128.00;-1.00;-1.00;105253;1254;1005056;-79
2023/05/29 08:10:46;;;;;;;10.80;5.70;;;;;;;-128.00;-1.00;-1.00;105338;1254;1004299;-79
2023/05/29 08:13:12;;;;;;;10.00;6.10;;;;;;;-128.00;-1.00;-1.00;105386;1253;1004564;-79
2023/05/29 08:15:39;;;;;;;12.60;7.30;;;;;;;-128.00;-1.00;-1.00;105426;1254;1004105;-79
2023/05/29 08:18:06;;;;;;;9.80;5.60;;;;;;;-128.00;-1.00;-1.00;105398;1253;1004157;-76
2023/05/29 08:20:34;;;;;;;7.50;5.30;;;;;;;-128.00;-1.00;-1.00;105401;1254;1004691;-76
2023/05/29 08:23:00;;;;;;;11.00;4.80;;;;;;;-128.00;-1.00;-1.00;105422;1253;1004297;-80
2023/05/29 08:25:27;;;;;;;8.30;4.50;;;;;;;-128.00;-1.00;-1.00;105428;1254;1005841;-79
2023/05/29 08:27:53;;;;;;;6.30;4.00;;;;;;;-128.00;-1.00;-1.00;105428;1253;1003879;-77
2023/05/29 08:30:20;;;;;;;7.60;5.40;;;;;;;-128.00;-1.00;-1.00;105439;1253;1004251;-76
2023/05/29 08:32:46;;;;;;;6.40;4.70;;;;;;;-128.00;-1.00;-1.00;105429;1253;1004599;-76
2023/05/29 08:35:13;;;;;;;7.30;3.40;;;;;;;-128.00;-1.00;-1.00;105314;1254;1004543;-76
2023/05/29 08:37:39;;;;;;;5.90;4.20;;;;;;;-128.00;-1.00;-1.00;105406;1256;1004079;-76
2023/05/29 08:40:08;;;;;;;8.10;3.80;;;;;;;-128.00;-1.00;-1.00;105394;1253;1004852;-76
2023/05/29 08:42:46;;;;;;;5.50;3.50;;;;;;;-128.00;-1.00;-1.00;105440;1254;1061495;-80
2023/05/29 08:45:13;;;;;;;6.40;3.70;;;;;;;-128.00;-1.00;-1.00;105398;1254;1057661;-79
2023/05/29 08:47:40;;;;;;;12.20;5.90;;;;;;;-128.00;-1.00;-1.00;105366;1254;1005072;-79
2023/05/29 08:50:07;;;;;;;15.10;4.10;;;;;;;-128.00;-1.00;-1.00;105523;1253;1003655;-76
2023/05/29 08:52:37;;;;;;;7.10;4.00;;;;;;;-128.00;-1.00;-1.00;105435;1254;1005094;-79
2023/05/29 08:55:04;;;;;;;10.10;3.50;;;;;;;-128.00;-1.00;-1.00;105498;1253;1062827;-79
2023/05/29 08:57:31;;;;;;;10.40;3.60;;;;;;;-128.00;-1.00;-1.00;105311;1254;1005094;-80
2023/05/29 08:59:57;;;;;;;8.50;3.40;;;;;;;-128.00;-1.00;-1.00;105315;1254;1004522;-76
2023/05/29 09:02:23;;;;;;;5.20;3.50;;;;;;;-128.00;-1.00;-1.00;105297;1254;1004980;-79
2023/05/29 09:04:52;;;;;;;5.70;3.20;;;;;;;-128.00;-1.00;-1.00;105406;1253;1003929;-79
2023/05/29 09:07:19;;;;;;;5.10;2.90;;;;;;;-128.00;-1.00;-1.00;105292;1254;1061102;-76
2023/05/29 09:09:46;;;;;;;5.30;3.10;;;;;;;-128.00;-1.00;-1.00;105345;1254;1003862;-77
2023/05/29 09:12:14;;;;;;;;;;;;;;;-128.00;-1.00;-1.00;105377;1254;1058501;-79
2023/05/29 09:14:42;;;;;;;7.70;3.50;;;;;;;-128.00;-1.00;-1.00;105373;1255;1004236;-79
2023/05/29 09:17:09;;;;;;;7.00;3.00;;;;;;;-128.00;-1.00;-1.00;105458;1252;1004428;-79
2023/05/29 09:19:36;;;;;;;7.50;3.30;;;;;;;-128.00;-1.00;-1.00;105368;1254;1003975;-79
2023/05/29 09:22:04;;;;;;;9.60;3.70;;;;;;;-128.00;-1.00;-1.00;105414;1253;1005772;-79
2023/05/29 09:24:32;;;;;;;11.90;3.60;;;;;;;-128.00;-1.00;-1.00;105413;1253;1003978;-77
2023/05/29 09:26:58;;;;;;;;;;;;;;;-128.00;-1.00;-1.00;105461;1253;1004520;-77
2023/05/29 09:29:25;;;;;;;11.20;5.40;;;;;;;-128.00;-1.00;-1.00;105362;1253;1004019;-81
2023/05/29 09:31:52;;;;;;;8.80;5.80;;;;;;;-128.00;-1.00;-1.00;105309;1252;1004295;-79
2023/05/29 09:34:18;;;;;;;21.20;11.50;;;;;;;-128.00;-1.00;-1.00;105400;1254;1004954;-78
2023/05/29 09:36:44;;;;;;;9.80;5.80;;;;;;;-128.00;-1.00;-1.00;105376;1254;1005128;-78
2023/05/29 09:39:14;;;;;;;9.80;5.60;;;;;;;-128.00;-1.00;-1.00;105200;1254;1003286;-80
2023/05/29 09:41:54;;;;;;;7.70;3.60;;;;;;;-128.00;-1.00;-1.00;105253;1253;1046730;-79
2023/05/29 09:44:21;;;;;;;6.80;3.80;;;;;;;-128.00;-1.00;-1.00;105497;1254;1005598;-82
2023/05/29 09:46:48;;;;;;;6.90;3.10;;;;;;;-128.00;-1.00;-1.00;105353;1253;1003432;-80
2023/05/29 09:49:16;;;;;;;7.40;3.60;;;;;;;-128.00;-1.00;-1.00;105389;1253;1005334;-82
2023/05/29 09:51:47;;;;;;;10.80;2.90;;;;;;;-128.00;-1.00;-1.00;105429;1254;1004440;-82
2023/05/29 09:54:15;;;;;;;5.40;2.80;;;;;;;-128.00;-1.00;-1.00;105195;1254;1047898;-82
2023/05/29 09:56:42;;;;;;;4.50;2.80;;;;;;;-128.00;-1.00;-1.00;105449;1253;1003936;-82
2023/05/29 09:59:12;;;;;;;7.50;2.90;;;;;;;-128.00;-1.00;-1.00;105360;1254;1004559;-80
2023/05/29 10:01:41;;;;;;;5.20;2.80;;;;;;;-128.00;-1.00;-1.00;105386;1254;1060075;-82
2023/05/29 10:04:10;;;;;;;6.50;3.10;;;;;;;-128.00;-1.00;-1.00;105587;1253;1044604;-82
2023/05/29 10:06:38;;;;;;;4.50;2.40;;;;;;;-128.00;-1.00;-1.00;105496;1254;1048223;-82
2023/05/29 10:09:10;;;;;;;7.30;3.60;;;;;;;-128.00;-1.00;-1.00;105457;1253;1061922;-83
2023/05/29 10:11:37;;;;;;;6.80;3.50;;;;;;;-128.00;-1.00;-1.00;105236;1254;1058374;-81
2023/05/29 10:14:04;;;;;;;10.40;3.70;;;;;;;-128.00;-1.00;-1.00;105365;1253;1004222;-81
2023/05/29 10:16:34;;;;;;;5.50;3.40;;;;;;;-128.00;-1.00;-1.00;105206;1254;1004531;-82
2023/05/29 10:19:01;;;;;;;5.70;3.10;;;;;;;-128.00;-1.00;-1.00;105341;1254;1047566;-82
2023/05/29 10:21:28;;;;;;;8.80;3.90;;;;;;;-128.00;-1.00;-1.00;105231;1254;1004955;-82
2023/05/29 10:23:54;;;;;;;6.10;3.30;;;;;;;-128.00;-1.00;-1.00;105395;1254;1004248;-78
2023/05/29 10:26:22;;;;;;;12.30;3.60;;;;;;;-128.00;-1.00;-1.00;105183;1254;1005546;-79
2023/05/29 10:29:14;;;;;;;7.20;3.50;;;;;;;-128.00;-1.00;-1.00;105378;1253;1004720;-81
2023/05/29 10:32:01;;;;;;;6.90;3.70;;;;;;;-128.00;-1.00;-1.00;105456;1254;1046734;-83
2023/05/29 10:34:33;;;;;;;10.70;6.50;;;;;;;-128.00;-1.00;-1.00;105429;1253;1062262;-90
2023/05/29 10:37:08;;;;;;;33.10;15.10;;;;;;;-128.00;-1.00;-1.00;105323;1253;1058282;-89
2023/05/29 10:39:35;;;;;;;26.80;14.60;;;;;;;-128.00;-1.00;-1.00;105252;1254;1059477;-89
2023/05/29 10:42:01;;;;;;;10.40;6.10;;;;;;;-128.00;-1.00;-1.00;105309;1257;1003784;-82
2023/05/29 10:44:31;;;;;;;7.70;3.90;;;;;;;-128.00;-1.00;-1.00;105340;1253;1004130;-80
2023/05/29 10:47:00;;;;;;;7.10;3.90;;;;;;;-128.00;-1.00;-1.00;105373;1256;1061197;-78
2023/05/29 10:49:26;;;;;;;11.20;4.00;;;;;;;-128.00;-1.00;-1.00;105384;1253;1059057;-80
2023/05/29 10:51:53;;;;;;;4.90;3.10;;;;;;;-128.00;-1.00;-1.00;105431;1253;1004466;-80
2023/05/29 10:54:22;;;;;;;8.30;3.60;;;;;;;-128.00;-1.00;-1.00;105409;1254;1004556;-80
2023/05/29 10:56:58;;;;;;;7.50;4.60;;;;;;;-128.00;-1.00;-1.00;105422;1254;1048348;-79
2023/05/29 10:59:28;;;;;;;16.20;10.40;;;;;;;-128.00;-1.00;-1.00;105360;1254;1060861;-79
2023/05/29 11:01:55;;;;;;;9.10;5.30;;;;;;;-128.00;-1.00;-1.00;105327;1252;1058897;-77
2023/05/29 11:04:21;;;;;;;8.90;3.90;;;;;;;-128.00;-1.00;-1.00;105278;1254;1004399;-78
2023/05/29 11:06:48;;;;;;;6.90;3.40;;;;;;;-128.00;-1.00;-1.00;105243;1254;1004624;-78
2023/05/29 11:09:36;;;;;;;8.50;4.00;;;;;;;-128.00;-1.00;-1.00;105282;1254;1004458;-77
2023/05/29 11:12:35;;;;;;;7.60;3.10;;;;;;;-128.00;-1.00;-1.00;105354;1253;1061658;-77
2023/05/29 11:15:13;;;;;;;7.40;3.20;;;;;;;-128.00;-1.00;-1.00;105367;1253;1057816;-76
2023/05/29 11:17:39;;;;;;;9.40;3.70;;;;;;;-128.00;-1.00;-1.00;105353;1253;1059210;-76